Time;durP1;ratioP1;P1;durP2;ratioP2;P2;SDS_P1;SDS_P2;PMS_P1;PMS_P2;Temp;Humidity;BMP_temperature;BMP_pressure;BME280_temperature;BME280_humidity;BME280_pressure;Samples;Min_cycle;Max_cycle;Signal;HPM_P1;HPM_P2
2022/01/20 00:00:49;;;;;;;11.77;1.40;;;4.30;99.90;;;;;;5029917;28;20044;-51
2022/01/20 00:03:29;;;;;;;11.57;1.30;;;4.30;99.90;;;;;;5034790;28;20045;-53
2022/01/20 00:27:36;;;;;;;10.43;1.55;;;4.10;99.90;;;;;;5032297;28;20091;-53
2022/01/20 00:32:56;;;;;;;12.90;1.90;;;4.10;99.90;;;;;;5030150;28;20404;-53
2022/01/20 00:35:25;;;;;;;16.48;1.90;;;4.10;99.90;;;;;;5030656;28;20042;-54
2022/01/20 00:37:50;;;;;;;12.27;1.90;;;4.10;99.90;;;;;;5030839;28;20499;-52
2022/01/20 00:40:17;;;;;;;16.15;1.95;;;4.10;99.90;;;;;;5031031;28;20033;-53
2022/01/20 00:42:43;;;;;;;19.48;2.22;;;4.10;99.90;;;;;;5030805;28;20041;-53
2022/01/20 00:45:09;;;;;;;22.13;2.55;;;4.00;99.90;;;;;;5029749;28;20037;-53
2022/01/20 00:47:37;;;;;;;16.02;2.17;;;4.10;99.90;;;;;;5030373;28;20049;-53
2022/01/20 00:50:04;;;;;;;22.23;2.42;;;4.00;99.90;;;;;;5030866;28;20041;-53
2022/01/20 00:52:29;;;;;;;20.52;2.22;;;4.10;99.90;;;;;;5030373;28;20117;-52
2022/01/20 00:54:55;;;;;;;13.13;1.88;;;4.10;99.90;;;;;;5012759;28;20180;-54
2022/01/20 00:57:21;;;;;;;25.40;2.75;;;4.10;99.90;;;;;;5030468;28;20487;-53
2022/01/20 00:59:46;;;;;;;15.85;2.42;;;4.20;99.90;;;;;;5030564;28;20713;-51
2022/01/20 01:02:12;;;;;;;25.83;2.72;;;4.20;99.90;;;;;;5029971;28;20037;-53
2022/01/20 01:04:40;;;;;;;17.40;2.67;;;4.20;99.90;;;;;;5029527;28;20503;-53
2022/01/20 01:09:47;;;;;;;20.33;2.35;;;4.30;99.90;;;;;;5033088;28;20408;-54
2022/01/20 01:12:18;;;;;;;20.63;2.75;;;4.30;99.90;;;;;;5034270;28;20037;-53
2022/01/20 01:14:49;;;;;;;18.50;2.58;;;4.40;99.90;;;;;;5034014;28;20092;-54
2022/01/20 01:20:10;;;;;;;20.98;2.25;;;4.40;99.90;;;;;;5034471;28;20040;-53
2022/01/20 01:22:37;;;;;;;18.02;2.75;;;4.50;99.90;;;;;;5033490;28;20041;-53
2022/01/20 01:25:03;;;;;;;21.00;2.60;;;4.50;99.90;;;;;;5034060;28;20033;-55
2022/01/20 01:27:34;;;;;;;16.40;2.78;;;4.50;99.90;;;;;;5034187;28;20037;-52
2022/01/20 01:30:20;;;;;;;26.83;3.33;;;4.60;99.90;;;;;;5034145;28;20041;-54
2022/01/20 01:32:52;;;;;;;17.58;2.75;;;4.60;99.90;;;;;;5033619;28;20045;-53
2022/01/20 01:35:21;;;;;;;13.52;2.30;;;4.50;99.90;;;;;;5065999;28;20045;-52
2022/01/20 01:40:32;;;;;;;;;;;4.30;99.90;;;;;;5033862;28;20113;-52
2022/01/20 01:43:02;;;;;;;18.45;2.40;;;4.20;99.90;;;;;;5033563;28;19920;-53
2022/01/20 01:45:36;;;;;;;16.30;1.60;;;4.10;99.90;;;;;;5033404;28;20041;-52
2022/01/20 01:48:04;;;;;;;18.25;2.03;;;4.10;99.90;;;;;;5032129;28;20116;-53
2022/01/20 01:50:30;;;;;;;22.33;2.60;;;4.00;99.90;;;;;;5032897;28;20041;-53
2022/01/20 01:52:58;;;;;;;17.33;2.17;;;4.00;99.90;;;;;;5030856;28;20053;-52
2022/01/20 01:55:24;;;;;;;16.45;2.45;;;4.00;99.90;;;;;;5033061;28;20041;-53
2022/01/20 01:57:50;;;;;;;14.85;2.33;;;4.10;99.90;;;;;;5032818;28;20046;-54
2022/01/20 02:00:17;;;;;;;15.45;2.60;;;4.10;99.90;;;;;;5031998;28;20084;-52
2022/01/20 02:02:43;;;;;;;15.30;1.90;;;4.10;99.90;;;;;;5033134;28;20039;-55
2022/01/20 02:05:14;;;;;;;19.20;1.73;;;4.20;99.90;;;;;;5033133;28;20049;-54
2022/01/20 02:18:47;;;;;;;9.02;1.65;;;4.30;99.90;;;;;;5032777;28;20042;-55
2022/01/20 02:21:13;;;;;;;16.45;1.85;;;4.30;99.90;;;;;;5032429;28;20045;-52
2022/01/20 02:23:39;;;;;;;11.15;1.58;;;4.30;99.90;;;;;;5032555;28;20041;-54
2022/01/20 02:26:05;;;;;;;14.32;1.50;;;4.30;99.90;;;;;;5032970;28;20045;-52
2022/01/20 02:28:31;;;;;;;14.45;1.60;;;4.30;99.90;;;;;;5032376;28;20125;-52
2022/01/20 02:30:57;;;;;;;12.55;2.47;;;4.30;99.90;;;;;;5032653;28;20153;-51
2022/01/20 02:33:26;;;;;;;11.50;1.58;;;4.30;99.90;;;;;;5032573;28;20049;-51
2022/01/20 02:36:15;;;;;;;13.45;1.52;;;4.20;99.90;;;;;;5021767;28;20045;-52
2022/01/20 02:38:50;;;;;;;7.72;1.30;;;4.20;99.90;;;;;;5032562;28;20048;-54
2022/01/20 02:46:44;;;;;;;8.15;1.48;;;4.20;99.90;;;;;;5031301;28;20179;-55
2022/01/20 02:49:15;;;;;;;14.70;1.45;;;4.20;99.90;;;;;;5032427;28;20147;-54
2022/01/20 02:51:54;;;;;;;9.60;1.45;;;4.20;99.90;;;;;;5031900;28;20041;-52
2022/01/20 02:54:21;;;;;;;7.95;1.20;;;4.20;99.90;;;;;;5032243;28;20037;-54
2022/01/20 02:56:47;;;;;;;10.60;1.08;;;4.20;99.90;;;;;;5032439;28;20354;-54
2022/01/20 02:59:13;;;;;;;9.75;1.00;;;4.20;99.90;;;;;;5032038;28;20049;-52
2022/01/20 03:01:40;;;;;;;11.88;2.05;;;4.20;99.90;;;;;;5032005;28;20511;-55
2022/01/20 03:04:05;;;;;;;9.75;1.58;;;4.10;99.90;;;;;;5031801;28;20045;-53
2022/01/20 03:06:32;;;;;;;11.38;1.20;;;4.20;99.90;;;;;;5031922;28;20033;-54
2022/01/20 03:08:58;;;;;;;16.27;1.48;;;4.10;99.90;;;;;;5032038;28;20080;-54
2022/01/20 03:11:23;;;;;;;7.50;1.20;;;4.10;99.90;;;;;;5030638;28;20075;-54
2022/01/20 03:13:49;;;;;;;9.85;1.60;;;4.10;99.90;;;;;;5031605;28;20077;-54
2022/01/20 03:16:15;;;;;;;9.80;1.50;;;4.10;99.90;;;;;;5031820;28;20049;-53
2022/01/20 03:18:41;;;;;;;9.18;1.50;;;4.00;99.90;;;;;;5016438;28;20049;-53
2022/01/20 03:21:07;;;;;;;14.30;1.85;;;4.00;99.90;;;;;;5031320;28;20038;-53
2022/01/20 03:23:34;;;;;;;14.65;1.60;;;3.90;99.90;;;;;;5031496;28;20041;-52
2022/01/20 03:25:59;;;;;;;9.25;1.50;;;3.90;99.90;;;;;;5031993;28;20040;-50
2022/01/20 03:28:25;;;;;;;12.25;1.67;;;3.90;99.90;;;;;;5030627;28;20042;-51
2022/01/20 03:30:51;;;;;;;19.83;2.00;;;3.80;99.90;;;;;;5030532;28;20120;-53
2022/01/20 03:33:16;;;;;;;12.02;2.05;;;3.90;99.90;;;;;;5031788;28;20076;-54
2022/01/20 03:35:42;;;;;;;12.55;2.10;;;3.80;99.90;;;;;;5030823;28;20073;-51
2022/01/20 03:38:09;;;;;;;17.30;2.25;;;3.80;99.90;;;;;;5031253;28;20127;-50
2022/01/20 03:40:35;;;;;;;15.07;2.17;;;3.80;99.90;;;;;;5031587;28;20034;-51
2022/01/20 03:43:00;;;;;;;16.02;1.95;;;3.90;99.90;;;;;;5031524;28;20052;-52
2022/01/20 03:45:27;;;;;;;19.30;2.30;;;3.90;99.90;;;;;;5031473;28;20034;-51
2022/01/20 03:47:59;;;;;;;16.35;2.20;;;3.90;99.90;;;;;;5031610;28;20485;-51
2022/01/20 03:53:16;;;;;;;21.50;2.67;;;3.90;99.90;;;;;;5014406;28;20484;-49
2022/01/20 03:55:42;;;;;;;19.98;3.28;;;4.00;99.90;;;;;;5031356;28;20045;-53
2022/01/20 03:58:08;;;;;;;20.88;3.17;;;3.90;99.90;;;;;;5031240;28;20405;-50
2022/01/20 04:00:33;;;;;;;19.92;2.95;;;3.90;99.90;;;;;;5031401;28;20080;-51
2022/01/20 04:02:59;;;;;;;19.52;2.88;;;3.90;99.90;;;;;;5030885;28;20480;-50
2022/01/20 04:05:25;;;;;;;22.83;3.17;;;3.90;99.90;;;;;;5031122;28;20033;-50
2022/01/20 04:07:51;;;;;;;19.23;3.30;;;3.80;99.90;;;;;;5031141;28;20065;-52
2022/01/20 04:10:17;;;;;;;24.73;3.40;;;3.80;99.90;;;;;;5031298;28;20079;-50
2022/01/20 04:12:42;;;;;;;25.00;3.28;;;3.80;99.90;;;;;;5030663;28;20431;-50
2022/01/20 04:15:09;;;;;;;20.10;3.47;;;3.80;99.90;;;;;;5031433;28;20049;-54
2022/01/20 04:17:40;;;;;;;25.30;3.88;;;3.80;99.90;;;;;;5031038;28;20045;-53
2022/01/20 04:20:07;;;;;;;20.60;3.20;;;3.80;99.90;;;;;;5031276;28;20353;-52
2022/01/20 04:22:33;;;;;;;23.00;3.22;;;3.80;99.90;;;;;;5030639;28;20106;-54
2022/01/20 04:24:59;;;;;;;30.60;3.78;;;3.80;99.90;;;;;;5031165;28;20042;-52
2022/01/20 04:27:24;;;;;;;24.98;4.20;;;3.70;99.90;;;;;;5030864;28;20044;-53
2022/01/20 04:29:50;;;;;;;26.63;4.15;;;3.70;99.90;;;;;;5031353;28;20175;-55
2022/01/20 04:32:16;;;;;;;19.83;3.45;;;3.70;99.90;;;;;;5031044;28;20041;-53
2022/01/20 04:34:43;;;;;;;28.73;4.03;;;3.70;99.90;;;;;;5031012;28;20084;-53
2022/01/20 04:37:09;;;;;;;22.08;3.65;;;3.70;99.90;;;;;;5030677;28;20057;-52
2022/01/20 04:39:40;;;;;;;27.15;4.20;;;3.70;99.90;;;;;;5030808;28;20034;-53
2022/01/20 04:42:06;;;;;;;20.08;3.67;;;3.70;99.90;;;;;;5031591;28;20081;-54
2022/01/20 04:44:39;;;;;;;17.33;2.72;;;3.70;99.90;;;;;;5034521;28;20091;-53
2022/01/20 04:47:19;;;;;;;23.85;3.40;;;3.60;99.90;;;;;;5030821;28;20049;-54
2022/01/20 04:57:57;;;;;;;19.48;2.90;;;3.70;99.90;;;;;;5033657;28;20392;-54
2022/01/20 05:00:26;;;;;;;20.42;2.88;;;3.60;99.90;;;;;;5034142;28;20033;-53
2022/01/20 05:02:52;;;;;;;21.40;2.50;;;3.60;99.90;;;;;;5034459;28;20048;-53
2022/01/20 05:05:18;;;;;;;14.70;2.70;;;3.60;99.90;;;;;;5032633;28;20037;-54
2022/01/20 05:07:44;;;;;;;15.15;2.17;;;3.60;99.90;;;;;;5034328;28;20523;-54
2022/01/20 05:10:12;;;;;;;17.40;3.25;;;3.60;99.90;;;;;;5034510;28;20053;-51
2022/01/20 05:15:20;;;;;;;16.10;2.50;;;3.50;99.90;;;;;;5033221;28;20124;-53
2022/01/20 05:17:46;;;;;;;14.20;2.30;;;3.40;99.90;;;;;;5034157;28;20511;-53
2022/01/20 05:20:12;;;;;;;16.23;2.28;;;3.40;99.90;;;;;;5034386;28;20042;-52
2022/01/20 05:22:38;;;;;;;16.98;2.13;;;3.40;99.90;;;;;;5033672;28;20528;-54
2022/01/20 05:25:04;;;;;;;16.80;1.80;;;3.40;99.90;;;;;;5033881;28;20076;-55
2022/01/20 05:27:30;;;;;;;16.27;2.92;;;3.40;99.90;;;;;;5033838;28;20480;-53
2022/01/20 05:29:57;;;;;;;14.27;2.67;;;3.30;99.90;;;;;;5034109;28;20052;-51
2022/01/20 05:32:23;;;;;;;15.70;2.20;;;3.30;99.90;;;;;;5033857;28;20373;-54
2022/01/20 05:34:49;;;;;;;15.90;2.05;;;3.20;99.90;;;;;;5033858;28;20034;-49
2022/01/20 05:37:15;;;;;;;14.10;2.83;;;3.10;99.90;;;;;;5033123;28;20511;-52
2022/01/20 05:39:42;;;;;;;12.60;2.10;;;3.00;99.90;;;;;;5033553;28;20033;-52
2022/01/20 05:42:08;;;;;;;18.13;2.60;;;3.00;99.90;;;;;;5048339;28;20480;-53
2022/01/20 05:44:34;;;;;;;15.27;2.40;;;2.90;99.90;;;;;;5033746;28;20044;-54
2022/01/20 05:47:05;;;;;;;13.90;2.40;;;2.80;99.90;;;;;;5033664;28;20025;-51
2022/01/20 05:49:31;;;;;;;14.27;2.10;;;2.80;99.90;;;;;;5033444;28;20068;-53
2022/01/20 05:51:57;;;;;;;18.35;2.90;;;2.70;99.90;;;;;;5033195;28;20499;-52
2022/01/20 05:54:23;;;;;;;19.15;2.65;;;2.70;99.90;;;;;;5030867;28;20041;-53
2022/01/20 05:56:50;;;;;;;19.38;2.50;;;2.70;99.90;;;;;;5033204;28;20076;-52
2022/01/20 05:59:16;;;;;;;16.45;2.28;;;2.70;99.90;;;;;;5032865;28;20048;-53
2022/01/20 06:01:45;;;;;;;14.10;3.10;;;2.70;99.90;;;;;;5033459;28;20033;-51
2022/01/20 06:04:10;;;;;;;21.55;2.67;;;2.80;99.90;;;;;;5033326;28;20038;-54
2022/01/20 06:06:36;;;;;;;16.23;2.35;;;2.80;99.90;;;;;;5033171;28;20419;-51
2022/01/20 06:09:07;;;;;;;17.40;2.50;;;3.40;99.90;;;;;;5032720;28;20060;-53
2022/01/20 06:11:34;;;;;;;16.40;2.38;;;2.80;99.90;;;;;;5033265;28;20041;-53
2022/01/20 06:14:00;;;;;;;14.65;2.33;;;2.80;99.90;;;;;;5032807;28;20057;-55
2022/01/20 06:16:26;;;;;;;16.50;2.58;;;2.80;99.90;;;;;;5032975;28;20384;-51
2022/01/20 06:18:51;;;;;;;17.58;2.50;;;2.80;99.90;;;;;;5032651;28;20052;-53
2022/01/20 06:21:17;;;;;;;18.30;2.78;;;2.80;99.90;;;;;;5025610;28;20041;-53
2022/01/20 06:23:43;;;;;;;14.40;2.33;;;2.70;99.90;;;;;;5032867;28;20025;-54
2022/01/20 06:26:09;;;;;;;15.50;2.03;;;2.70;99.90;;;;;;5032809;28;20044;-49
2022/01/20 06:28:37;;;;;;;16.33;2.20;;;2.70;99.90;;;;;;5032793;28;20148;-54
2022/01/20 06:31:03;;;;;;;13.60;2.47;;;2.60;99.90;;;;;;5026881;28;20179;-51
2022/01/20 06:33:29;;;;;;;14.80;1.98;;;2.20;99.90;;;;;;5032504;28;20583;-53
2022/01/20 06:35:56;;;;;;;16.95;2.40;;;2.50;99.90;;;;;;5032491;28;20116;-53
2022/01/20 06:38:22;;;;;;;15.88;2.50;;;2.50;99.90;;;;;;5032554;28;20079;-51
2022/01/20 06:40:48;;;;;;;19.23;2.38;;;2.50;99.90;;;;;;5032533;28;20099;-51
2022/01/20 06:43:14;;;;;;;14.15;2.00;;;2.50;99.90;;;;;;5032703;28;20052;-49
2022/01/20 06:45:40;;;;;;;13.88;2.10;;;2.60;99.90;;;;;;5032280;28;20045;-49
2022/01/20 06:48:05;;;;;;;9.45;1.73;;;2.60;99.90;;;;;;5031249;28;20038;-53
2022/01/20 06:50:31;;;;;;;14.20;1.98;;;2.60;99.90;;;;;;5032627;28;20045;-51
2022/01/20 06:52:57;;;;;;;10.77;1.83;;;2.60;99.90;;;;;;5031789;28;20044;-54
2022/01/20 06:55:23;;;;;;;12.15;2.00;;;2.60;99.90;;;;;;5032277;28;20047;-51
2022/01/20 06:57:48;;;;;;;13.40;1.80;;;2.50;99.90;;;;;;5031975;28;20045;-52
2022/01/20 07:00:20;;;;;;;12.85;1.80;;;2.50;99.90;;;;;;5026570;28;20040;-53
2022/01/20 07:02:47;;;;;;;10.88;1.60;;;2.40;99.90;;;;;;5031033;28;20044;-52
2022/01/20 07:05:16;;;;;;;11.73;1.80;;;2.40;99.90;;;;;;5031879;28;20057;-52
2022/01/20 07:07:42;;;;;;;11.30;2.00;;;2.30;99.90;;;;;;5030660;28;20064;-49
2022/01/20 07:10:10;;;;;;;7.40;1.83;;;2.30;99.90;;;;;;5032047;28;20029;-53
2022/01/20 07:12:36;;;;;;;10.70;1.60;;;2.30;99.90;;;;;;5031851;28;20492;-52
2022/01/20 07:15:04;;;;;;;9.25;1.20;;;2.20;99.90;;;;;;5030850;28;20077;-49
2022/01/20 07:17:29;;;;;;;9.52;1.38;;;2.20;99.90;;;;;;5031605;28;20519;-51
2022/01/20 07:19:55;;;;;;;10.50;1.50;;;2.10;99.90;;;;;;5031936;28;20046;-52
2022/01/20 07:22:21;;;;;;;12.95;1.52;;;2.10;99.90;;;;;;5030931;28;20049;-53
2022/01/20 07:24:47;;;;;;;12.27;2.00;;;2.00;99.90;;;;;;5028935;28;20036;-50
2022/01/20 07:27:14;;;;;;;10.90;1.48;;;1.90;99.90;;;;;;5031932;28;20392;-53
2022/01/20 07:29:39;;;;;;;9.18;1.40;;;1.90;99.90;;;;;;5031786;28;20358;-50
2022/01/20 07:32:06;;;;;;;10.73;1.83;;;1.80;99.90;;;;;;5031768;28;20099;-54
2022/01/20 07:34:33;;;;;;;16.35;2.08;;;1.80;99.90;;;;;;5031396;28;20069;-50
2022/01/20 07:37:00;;;;;;;11.88;1.67;;;1.70;99.90;;;;;;5017665;28;20152;-52
2022/01/20 07:39:26;;;;;;;15.18;2.00;;;1.70;99.90;;;;;;5031573;28;20053;-53
2022/01/20 07:41:51;;;;;;;13.55;2.10;;;1.70;99.90;;;;;;5031578;28;20421;-52
2022/01/20 07:44:17;;;;;;;15.75;2.45;;;1.70;99.90;;;;;;5031677;28;20385;-52
2022/01/20 07:46:47;;;;;;;12.45;2.22;;;1.70;99.90;;;;;;5031136;28;20123;-50
2022/01/20 07:49:13;;;;;;;15.25;2.50;;;1.80;99.90;;;;;;5031544;28;20126;-52
2022/01/20 07:51:38;;;;;;;20.25;2.72;;;1.80;99.90;;;;;;5029861;28;20044;-52
2022/01/20 07:54:04;;;;;;;13.77;2.35;;;1.80;99.90;;;;;;5030779;28;20046;-51
2022/01/20 07:56:30;;;;;;;18.75;3.35;;;1.80;99.90;;;;;;5031340;28;20045;-54
2022/01/20 07:58:56;;;;;;;19.55;2.75;;;1.80;99.90;;;;;;5031090;28;20084;-51
2022/01/20 08:01:24;;;;;;;17.08;2.58;;;1.80;99.90;;;;;;5031221;28;20488;-53
2022/01/20 08:03:53;;;;;;;14.05;2.40;;;1.90;99.90;;;;;;5031221;28;20469;-53
2022/01/20 08:06:22;;;;;;;16.77;2.55;;;1.90;99.90;;;;;;5031132;28;20120;-54
2022/01/20 08:08:50;;;;;;;14.02;2.50;;;1.90;99.90;;;;;;5031039;28;20052;-52
2022/01/20 08:11:17;;;;;;;26.38;3.60;;;1.90;99.90;;;;;;5031220;28;20404;-54
2022/01/20 08:13:43;;;;;;;18.10;3.90;;;1.90;99.90;;;;;;5030570;28;20563;-52
2022/01/20 08:16:08;;;;;;;17.08;3.45;;;1.80;99.90;;;;;;5031196;28;20037;-53
2022/01/20 08:18:34;;;;;;;23.38;4.30;;;1.80;99.90;;;;;;5034206;28;20095;-52
2022/01/20 08:21:00;;;;;;;17.77;3.33;;;1.80;99.90;;;;;;5035504;28;20124;-53
2022/01/20 08:23:25;;;;;;;13.73;2.90;;;1.80;99.90;;;;;;5034326;28;20472;-53
2022/01/20 08:25:51;;;;;;;13.90;2.60;;;1.90;99.90;;;;;;5033297;28;20447;-53
2022/01/20 08:28:20;;;;;;;12.98;2.38;;;1.90;99.90;;;;;;5033422;28;20041;-54
2022/01/20 08:30:46;;;;;;;16.75;2.80;;;2.00;99.90;;;;;;5031446;28;20437;-52
2022/01/20 08:33:12;;;;;;;17.90;3.35;;;2.00;99.90;;;;;;5039965;28;20135;-48
2022/01/20 08:35:37;;;;;;;19.75;2.75;;;2.00;99.90;;;;;;5038538;28;20384;-52
2022/01/20 08:38:06;;;;;;;19.10;2.58;;;2.00;99.90;;;;;;5033452;28;20056;-54
2022/01/20 08:40:31;;;;;;;17.80;2.30;;;2.00;99.90;;;;;;5036664;28;20404;-52
2022/01/20 08:42:57;;;;;;;19.15;2.58;;;2.00;99.90;;;;;;5024644;28;20041;-54
2022/01/20 08:45:27;;;;;;;20.65;3.08;;;2.00;99.90;;;;;;5021477;28;20036;-52
2022/01/20 08:47:55;;;;;;;18.67;2.92;;;2.00;99.90;;;;;;5024584;28;20123;-55
2022/01/20 08:50:22;;;;;;;17.98;3.10;;;2.10;99.90;;;;;;5023512;28;20128;-55
2022/01/20 08:52:48;;;;;;;23.23;3.58;;;2.20;99.90;;;;;;5024657;28;20136;-55
2022/01/20 08:55:14;;;;;;;18.05;3.33;;;2.30;99.90;;;;;;5017189;28;20051;-52
2022/01/20 08:57:40;;;;;;;30.42;4.22;;;2.40;99.90;;;;;;5024145;28;20094;-55
2022/01/20 09:00:08;;;;;;;22.70;4.13;;;2.50;99.90;;;;;;5022170;28;20033;-54
2022/01/20 09:02:33;;;;;;;20.08;3.30;;;2.50;99.90;;;;;;5024107;28;20783;-52
2022/01/20 09:05:00;;;;;;;19.00;3.42;;;2.60;99.90;;;;;;5021791;28;20047;-53
2022/01/20 09:07:27;;;;;;;19.75;3.67;;;2.60;99.90;;;;;;5019892;28;20073;-54
2022/01/20 09:09:55;;;;;;;15.98;2.95;;;2.70;99.90;;;;;;5020645;28;20053;-53
2022/01/20 09:17:49;;;;;;;16.90;2.65;;;2.80;99.90;;;;;;5009640;28;20050;-52
2022/01/20 09:20:15;;;;;;;19.67;2.60;;;2.80;99.90;;;;;;5006035;28;20088;-51
2022/01/20 09:22:41;;;;;;;14.95;2.10;;;2.90;99.90;;;;;;5005506;28;20034;-52
2022/01/20 09:25:08;;;;;;;11.15;1.70;;;2.90;99.90;;;;;;5010742;28;20049;-52
2022/01/20 09:27:34;;;;;;;10.88;2.13;;;3.00;99.90;;;;;;4972911;28;20064;-53
2022/01/20 09:30:01;;;;;;;13.43;2.13;;;3.00;99.90;;;;;;4986635;28;20555;-53
2022/01/20 09:32:29;;;;;;;14.95;2.13;;;3.10;99.90;;;;;;5007750;28;20078;-50
2022/01/20 09:34:56;;;;;;;13.48;1.98;;;3.10;99.90;;;;;;5009499;28;20107;-48
2022/01/20 09:37:23;;;;;;;13.82;1.90;;;3.30;99.90;;;;;;5008161;28;20121;-51
2022/01/20 09:39:49;;;;;;;15.70;2.30;;;3.30;99.90;;;;;;5008307;28;20453;-51
2022/01/20 09:42:14;;;;;;;15.35;2.38;;;3.40;99.90;;;;;;5008480;28;20060;-51
2022/01/20 09:44:45;;;;;;;15.70;2.17;;;3.40;99.90;;;;;;4990134;28;20055;-53
2022/01/20 09:47:11;;;;;;;16.00;2.58;;;3.40;99.90;;;;;;5011906;28;20085;-54
2022/01/20 09:49:38;;;;;;;15.63;2.20;;;3.40;99.90;;;;;;5008304;28;20052;-53
2022/01/20 09:52:04;;;;;;;17.63;2.45;;;3.40;99.90;;;;;;5005563;28;20433;-52
2022/01/20 09:54:31;;;;;;;17.95;2.08;;;3.30;99.90;;;;;;4984361;28;20030;-54
2022/01/20 09:56:58;;;;;;;13.48;2.13;;;3.10;99.90;;;;;;5004751;28;20046;-52
2022/01/20 09:59:24;;;;;;;15.80;2.75;;;3.10;99.90;;;;;;5008316;28;20129;-54
2022/01/20 10:01:56;;;;;;;18.40;3.17;;;3.00;99.90;;;;;;5007579;28;20083;-50
2022/01/20 10:04:27;;;;;;;19.48;2.80;;;3.10;99.90;;;;;;5006695;28;20127;-53
2022/01/20 10:06:54;;;;;;;18.38;3.03;;;3.30;99.90;;;;;;5007025;28;20041;-54
2022/01/20 10:09:28;;;;;;;22.73;2.65;;;3.40;99.90;;;;;;5007495;28;20038;-52
2022/01/20 10:11:54;;;;;;;14.70;2.72;;;3.50;99.90;;;;;;5008714;28;20084;-53
2022/01/20 10:14:19;;;;;;;12.48;3.10;;;3.50;99.90;;;;;;5017197;28;20080;-54
2022/01/20 10:16:45;;;;;;;16.35;2.97;;;3.50;99.90;;;;;;5022397;28;20033;-55
2022/01/20 10:19:23;;;;;;;15.43;2.50;;;3.50;99.90;;;;;;5028183;28;20045;-52
2022/01/20 10:21:48;;;;;;;15.45;2.72;;;3.60;99.90;;;;;;5027132;28;20035;-53
2022/01/20 10:24:16;;;;;;;13.77;2.38;;;3.60;99.90;;;;;;5026936;28;20087;-54
2022/01/20 10:26:42;;;;;;;13.60;2.05;;;3.60;99.90;;;;;;5031494;28;20036;-56
2022/01/20 10:29:12;;;;;;;16.08;2.63;;;3.60;99.90;;;;;;5029983;28;20037;-53
2022/01/20 10:31:46;;;;;;;13.43;2.47;;;4.00;99.90;;;;;;5032598;28;20064;-53
2022/01/20 10:34:32;;;;;;;19.60;2.55;;;4.20;99.90;;;;;;5031411;28;20049;-53
2022/01/20 10:37:18;;;;;;;14.35;2.28;;;4.30;99.90;;;;;;5036760;28;20068;-53
2022/01/20 10:39:47;;;;;;;17.98;2.42;;;4.20;99.90;;;;;;5031498;28;20480;-56
2022/01/20 10:42:23;;;;;;;17.10;3.38;;;4.10;99.90;;;;;;5031379;28;20038;-55
2022/01/20 10:44:52;;;;;;;15.95;2.53;;;4.00;99.90;;;;;;5030885;28;20055;-54
2022/01/20 10:47:21;;;;;;;21.42;2.72;;;4.10;99.90;;;;;;5030390;28;20073;-55
2022/01/20 10:49:48;;;;;;;13.85;2.15;;;4.20;99.90;;;;;;5031939;28;20107;-54
2022/01/20 10:52:16;;;;;;;18.90;3.17;;;4.30;99.90;;;;;;5027696;28;20103;-54
2022/01/20 10:54:45;;;;;;;15.57;3.08;;;4.30;99.90;;;;;;5029243;28;20037;-54
2022/01/20 10:57:15;;;;;;;24.45;4.07;;;4.30;99.90;;;;;;5029810;28;20041;-53
2022/01/20 10:59:56;;;;;;;15.20;3.13;;;4.30;99.90;;;;;;5032163;28;20504;-54
2022/01/20 11:02:27;;;;;;;16.20;2.95;;;4.20;99.90;;;;;;5028253;28;20415;-54
2022/01/20 11:04:54;;;;;;;13.63;2.30;;;4.10;99.90;;;;;;5030017;28;20037;-55
2022/01/20 11:07:20;;;;;;;16.08;2.17;;;4.10;99.90;;;;;;5027120;28;20034;-55
2022/01/20 11:09:52;;;;;;;19.20;2.40;;;4.30;99.90;;;;;;5029479;28;20091;-55
2022/01/20 11:12:17;;;;;;;12.43;1.88;;;4.50;99.90;;;;;;5026294;28;20037;-53
2022/01/20 11:14:46;;;;;;;15.38;2.78;;;4.80;99.90;;;;;;5025549;28;20128;-50
2022/01/20 11:17:20;;;;;;;15.52;2.58;;;5.10;99.90;;;;;;5028110;28;20067;-54
2022/01/20 11:19:46;;;;;;;16.48;2.92;;;5.00;99.90;;;;;;5030159;28;20045;-50
2022/01/20 11:22:13;;;;;;;12.32;2.67;;;4.80;99.90;;;;;;5028797;28;20482;-49
2022/01/20 11:24:41;;;;;;;12.80;2.15;;;4.80;99.90;;;;;;5031616;28;20054;-52
2022/01/20 11:27:10;;;;;;;18.13;2.53;;;5.00;99.90;;;;;;5034229;28;20446;-52
2022/01/20 11:29:50;;;;;;;13.55;2.80;;;5.10;99.90;;;;;;5034994;28;20144;-52
2022/01/20 11:32:22;;;;;;;15.98;2.30;;;5.20;99.90;;;;;;5033345;28;20045;-51
2022/01/20 11:35:09;;;;;;;19.98;2.42;;;5.20;99.90;;;;;;5035135;28;20068;-52
2022/01/20 11:37:39;;;;;;;17.23;2.50;;;5.00;99.90;;;;;;5032775;28;20045;-52
2022/01/20 11:40:16;;;;;;;21.75;2.50;;;4.70;99.90;;;;;;5034322;28;20038;-53
2022/01/20 11:42:54;;;;;;;22.58;3.10;;;4.30;99.90;;;;;;5027709;28;20951;-51
2022/01/20 11:45:28;;;;;;;20.05;3.42;;;4.10;99.90;;;;;;5033913;28;20036;-51
2022/01/20 11:47:55;;;;;;;16.15;3.08;;;3.80;99.90;;;;;;5021898;28;20055;-51
2022/01/20 11:50:23;;;;;;;19.92;3.40;;;3.50;99.90;;;;;;5026658;28;20075;-51
2022/01/20 11:52:49;;;;;;;17.27;3.13;;;3.20;99.90;;;;;;5026864;28;20037;-51
2022/01/20 11:55:17;;;;;;;13.13;2.50;;;3.00;99.90;;;;;;5029949;28;20044;-53
2022/01/20 11:57:43;;;;;;;17.55;2.88;;;2.80;99.90;;;;;;5029658;28;20051;-52
2022/01/20 12:00:26;;;;;;;17.20;3.15;;;2.70;99.90;;;;;;5035343;28;20041;-50
2022/01/20 12:02:52;;;;;;;17.83;3.38;;;2.80;99.90;;;;;;5030113;28;20109;-54
2022/01/20 12:05:26;;;;;;;16.92;2.67;;;3.10;99.90;;;;;;5030303;28;20038;-50
2022/01/20 12:08:04;;;;;;;14.63;2.75;;;3.40;99.90;;;;;;5029627;28;20042;-52
2022/01/20 12:10:30;;;;;;;18.17;2.80;;;3.80;99.90;;;;;;5029885;28;20540;-51
2022/01/20 12:13:11;;;;;;;17.30;3.03;;;4.10;99.90;;;;;;5026705;28;20109;-52
2022/01/20 12:15:51;;;;;;;14.32;2.25;;;4.30;99.90;;;;;;5029977;28;20050;-53
2022/01/20 12:18:17;;;;;;;13.27;2.45;;;4.40;99.90;;;;;;5030811;28;20354;-51
2022/01/20 12:20:43;;;;;;;16.63;3.00;;;4.60;99.90;;;;;;5029549;28;20044;-50
2022/01/20 12:23:09;;;;;;;15.43;3.00;;;4.70;99.90;;;;;;5021942;28;20052;-54
2022/01/20 12:25:36;;;;;;;14.20;2.95;;;4.90;99.90;;;;;;5024989;28;20038;-50
2022/01/20 12:28:08;;;;;;;17.70;2.83;;;5.00;99.90;;;;;;5030332;28;20029;-50
2022/01/20 12:30:36;;;;;;;11.93;2.70;;;5.10;99.90;;;;;;5030629;28;20093;-54
2022/01/20 12:33:10;;;;;;;13.65;2.33;;;5.20;99.90;;;;;;5030655;28;20096;-52
2022/01/20 12:35:41;;;;;;;11.50;2.20;;;5.20;99.90;;;;;;5030778;28;20065;-51
2022/01/20 12:38:25;;;;;;;12.45;1.65;;;5.30;99.90;;;;;;5030640;28;20053;-53
2022/01/20 12:41:02;;;;;;;12.27;1.70;;;5.50;99.90;;;;;;5030579;28;20043;-51
2022/01/20 12:43:36;;;;;;;17.00;3.03;;;5.50;99.90;;;;;;5030651;28;20033;-51
2022/01/20 12:46:02;;;;;;;;;;;5.50;99.90;;;;;;5031254;28;20476;-53
2022/01/20 12:48:28;;;;;;;11.05;2.03;;;5.70;99.90;;;;;;5030209;28;19924;-53
2022/01/20 12:50:55;;;;;;;11.32;2.20;;;5.70;99.90;;;;;;5030503;28;20049;-52
2022/01/20 12:53:56;;;;;;;10.50;1.80;;;5.70;99.90;;;;;;5030097;28;20055;-53
2022/01/20 12:56:30;;;;;;;10.75;2.00;;;5.50;99.90;;;;;;5016674;28;20108;-51
2022/01/20 12:58:56;;;;;;;11.32;1.85;;;5.50;99.90;;;;;;5029820;28;20033;-53
2022/01/20 13:01:22;;;;;;;11.80;1.88;;;5.50;99.90;;;;;;5030608;28;20026;-51
2022/01/20 13:03:48;;;;;;;14.10;2.30;;;5.60;99.90;;;;;;5032151;28;20044;-53
2022/01/20 13:06:25;;;;;;;12.38;2.47;;;5.70;99.90;;;;;;5034411;28;20046;-50
2022/01/20 13:09:03;;;;;;;12.30;2.55;;;5.70;99.90;;;;;;5034314;28;20489;-48
2022/01/20 13:11:41;;;;;;;16.48;3.55;;;5.50;99.90;;;;;;5033930;28;20060;-54
2022/01/20 13:14:08;;;;;;;22.95;4.00;;;5.40;99.90;;;;;;5033845;28;20405;-51
2022/01/20 13:16:34;;;;;;;12.50;2.90;;;5.20;99.90;;;;;;5034197;28;20037;-51
2022/01/20 13:19:03;;;;;;;7.05;1.60;;;4.90;99.90;;;;;;5033756;28;20125;-54
2022/01/20 13:21:52;;;;;;;6.32;1.05;;;4.50;99.90;;;;;;5034170;28;20033;-51
2022/01/20 13:24:29;;;;;;;9.05;1.45;;;4.00;99.90;;;;;;5032975;28;20512;-53
2022/01/20 13:26:56;;;;;;;10.05;1.50;;;3.90;99.90;;;;;;5034483;28;20519;-51
2022/01/20 13:29:24;;;;;;;12.10;1.80;;;3.70;99.90;;;;;;5036830;28;20037;-54
2022/01/20 13:31:59;;;;;;;10.38;1.60;;;3.60;99.90;;;;;;5033410;28;20042;-52
2022/01/20 13:34:25;;;;;;;11.18;2.08;;;3.60;99.90;;;;;;5033638;28;20038;-54
2022/01/20 13:36:52;;;;;;;9.52;1.38;;;3.70;99.90;;;;;;5033501;28;20399;-53
2022/01/20 13:39:33;;;;;;;6.82;1.10;;;3.90;99.90;;;;;;5029541;28;20055;-51
2022/01/20 13:45:13;;;;;;;11.25;1.40;;;4.30;99.90;;;;;;5021146;28;20041;-52
2022/01/20 13:48:05;;;;;;;11.45;1.50;;;4.40;99.90;;;;;;5031762;28;20092;-52
2022/01/20 13:50:32;;;;;;;12.95;2.08;;;4.50;99.90;;;;;;5031209;28;20050;-53
2022/01/20 13:53:00;;;;;;;10.30;2.05;;;4.40;99.90;;;;;;5025927;28;20100;-50
2022/01/20 13:55:31;;;;;;;8.40;1.50;;;4.30;99.90;;;;;;5032232;28;20064;-50
2022/01/20 13:57:59;;;;;;;9.25;1.88;;;4.30;99.90;;;;;;5034563;28;20041;-53
2022/01/20 14:00:31;;;;;;;11.68;2.00;;;4.20;99.90;;;;;;5038078;28;20051;-52
2022/01/20 14:02:56;;;;;;;11.90;1.98;;;4.10;99.90;;;;;;5035384;28;20068;-49
2022/01/20 14:05:31;;;;;;;12.07;2.50;;;4.10;99.90;;;;;;5036849;28;20064;-51